Time;durP1;ratioP1;P1;durP2;ratioP2;P2;SDS_P1;SDS_P2;PMS_P1;PMS_P2;Temp;Humidity;BMP_temperature;BMP_pressure;BME280_temperature;BME280_humidity;BME280_pressure;Samples;Min_cycle;Max_cycle;Signal;HPM_P1;HPM_P2
2022/08/21 00:01:25;;;;;;;1999.90;999.90;;;18.50;99.90;;;;;;5022696;28;20237;-69
2022/08/21 00:03:51;;;;;;;1999.90;999.90;;;18.50;99.90;;;;;;5023740;28;20199;-69
2022/08/21 00:06:17;;;;;;;1999.90;999.90;;;18.50;99.90;;;;;;5023014;28;20781;-70
2022/08/21 00:08:42;;;;;;;1999.90;999.90;;;18.40;99.90;;;;;;5004593;28;20177;-69
2022/08/21 00:11:08;;;;;;;1999.90;999.90;;;18.30;99.90;;;;;;5022364;28;20180;-69
2022/08/21 00:13:34;;;;;;;1999.90;999.90;;;18.30;99.90;;;;;;5029729;23;20759;-66
2022/08/21 00:16:00;;;;;;;1999.90;999.90;;;18.30;99.90;;;;;;5038545;28;20410;-67
2022/08/21 00:18:26;;;;;;;1999.90;999.90;;;18.20;99.90;;;;;;5034626;28;20596;-67
2022/08/21 00:20:52;;;;;;;1999.90;999.90;;;18.20;99.90;;;;;;5034459;28;20425;-67
2022/08/21 00:23:18;;;;;;;1999.90;999.90;;;18.10;99.90;;;;;;5034251;28;20758;-66
2022/08/21 00:25:45;;;;;;;1999.90;999.90;;;18.00;99.90;;;;;;5033543;28;20457;-66
2022/08/21 00:28:11;;;;;;;1999.90;999.90;;;18.00;99.90;;;;;;5033395;28;20410;-66
2022/08/21 00:30:37;;;;;;;1999.90;999.90;;;17.90;99.90;;;;;;5034004;28;20414;-67
2022/08/21 00:33:04;;;;;;;1999.90;999.90;;;17.90;99.90;;;;;;5034163;28;20436;-67
2022/08/21 00:35:36;;;;;;;1999.90;999.90;;;17.80;99.90;;;;;;5033500;28;20412;-66
2022/08/21 00:38:04;;;;;;;1999.90;999.90;;;17.80;99.90;;;;;;5035462;28;20397;-66
2022/08/21 00:40:54;;;;;;;1999.90;999.90;;;17.60;99.90;;;;;;5040628;28;20416;-66
2022/08/21 00:43:24;;;;;;;1999.90;999.90;;;17.50;99.90;;;;;;5040054;28;20458;-66
2022/08/21 00:45:50;;;;;;;1999.90;999.90;;;17.40;99.90;;;;;;5040322;28;20759;-66
2022/08/21 00:48:16;;;;;;;1999.90;999.90;;;17.40;99.90;;;;;;5041146;28;20429;-66
2022/08/21 00:50:55;;;;;;;1999.90;999.90;;;17.40;99.90;;;;;;5041748;28;20835;-66
2022/08/21 00:53:22;;;;;;;1999.90;999.90;;;17.30;99.90;;;;;;5041741;28;20820;-67
2022/08/21 00:55:48;;;;;;;1999.90;999.90;;;17.30;99.90;;;;;;5033295;28;20573;-67
2022/08/21 00:58:15;;;;;;;1999.90;999.90;;;17.30;99.90;;;;;;5032658;28;20410;-66
2022/08/21 01:00:44;;;;;;;1999.90;999.90;;;17.30;99.90;;;;;;5032825;28;20408;-66
2022/08/21 01:03:19;;;;;;;1999.90;999.90;;;17.20;99.90;;;;;;5032683;28;20504;-66
2022/08/21 01:05:45;;;;;;;1999.90;999.90;;;17.20;99.90;;;;;;5032760;28;20481;-66
2022/08/21 01:08:13;;;;;;;1999.90;999.90;;;17.20;99.90;;;;;;5032499;28;20518;-66
2022/08/21 01:10:40;;;;;;;1999.90;999.90;;;17.20;99.90;;;;;;5032670;28;20496;-66
2022/08/21 01:13:09;;;;;;;1999.90;999.90;;;17.20;99.90;;;;;;5032471;28;20465;-66
2022/08/21 01:15:41;;;;;;;1999.90;999.90;;;17.20;99.90;;;;;;5032656;28;20406;-67
2022/08/21 01:18:10;;;;;;;1999.90;999.90;;;17.10;99.90;;;;;;5032574;28;20397;-66
2022/08/21 01:20:38;;;;;;;1999.90;999.90;;;17.10;99.90;;;;;;5032674;28;20406;-66
2022/08/21 01:23:06;;;;;;;1999.90;999.90;;;17.10;99.90;;;;;;5032328;28;20455;-66
2022/08/21 01:25:34;;;;;;;1999.90;999.90;;;17.20;99.90;;;;;;5032451;28;20406;-66
2022/08/21 01:28:10;;;;;;;1999.90;999.90;;;17.20;99.90;;;;;;5033472;28;21076;-67
2022/08/21 01:30:38;;;;;;;1999.90;999.90;;;17.20;99.90;;;;;;5017351;28;20920;-67
2022/08/21 01:33:03;;;;;;;1999.90;999.90;;;17.10;99.90;;;;;;5039663;28;20514;-67
2022/08/21 01:35:29;;;;;;;1999.90;999.90;;;17.10;99.90;;;;;;5032410;28;20544;-66
2022/08/21 01:37:55;;;;;;;1999.90;999.90;;;17.00;99.90;;;;;;5034440;28;20168;-66
2022/08/21 01:40:21;;;;;;;1999.90;999.90;;;17.00;99.90;;;;;;5040609;28;20164;-67
2022/08/21 01:42:48;;;;;;;1999.90;999.90;;;17.00;99.90;;;;;;5039391;28;20201;-67
2022/08/21 01:45:15;;;;;;;1999.90;999.90;;;16.90;99.90;;;;;;5034555;28;20418;-66
2022/08/21 01:47:41;;;;;;;1999.90;999.90;;;16.90;99.90;;;;;;5031678;28;20465;-66
2022/08/21 01:50:11;;;;;;;1999.90;999.90;;;16.80;99.90;;;;;;5032144;28;20441;-67
2022/08/21 01:52:37;;;;;;;1999.90;999.90;;;16.70;99.90;;;;;;5038283;28;20927;-67
2022/08/21 01:55:05;;;;;;;1999.90;999.90;;;16.80;99.90;;;;;;5041148;28;20498;-66
2022/08/21 01:57:32;;;;;;;1999.90;999.90;;;16.80;99.90;;;;;;5031791;28;20180;-66
2022/08/21 01:59:58;;;;;;;1999.90;999.90;;;16.80;99.90;;;;;;5032156;28;20485;-66
2022/08/21 02:02:24;;;;;;;1999.90;999.90;;;16.70;99.90;;;;;;5031938;28;20979;-66
2022/08/21 02:04:50;;;;;;;1999.90;999.90;;;16.70;99.90;;;;;;5031933;28;20601;-67
2022/08/21 02:07:16;;;;;;;1999.90;999.90;;;16.60;99.90;;;;;;5031639;28;20460;-67
2022/08/21 02:09:44;;;;;;;1999.90;999.90;;;16.60;99.90;;;;;;5031949;28;20652;-67
2022/08/21 02:12:11;;;;;;;1999.90;999.90;;;16.60;99.90;;;;;;5041243;28;20217;-67
2022/08/21 02:14:37;;;;;;;1999.90;999.90;;;16.50;99.90;;;;;;5041851;28;20435;-67
2022/08/21 02:17:03;;;;;;;1999.90;999.90;;;16.50;99.90;;;;;;5041836;28;20410;-67
2022/08/21 02:19:29;;;;;;;1999.90;999.90;;;16.40;99.90;;;;;;5041623;28;20945;-66
2022/08/21 02:21:54;;;;;;;1999.90;999.90;;;16.30;99.90;;;;;;5034017;28;20408;-67
2022/08/21 02:24:20;;;;;;;1999.90;999.90;;;16.30;99.90;;;;;;5031717;28;20210;-67
2022/08/21 02:26:45;;;;;;;1999.90;999.90;;;16.30;99.90;;;;;;5031494;28;20161;-67
2022/08/21 02:29:11;;;;;;;1999.90;999.90;;;16.30;99.90;;;;;;5039422;28;20665;-67
2022/08/21 02:31:37;;;;;;;1999.90;999.90;;;16.20;99.90;;;;;;5032814;28;20176;-66
2022/08/21 02:34:02;;;;;;;1999.90;999.90;;;16.20;99.90;;;;;;5031679;28;20206;-67
2022/08/21 02:36:28;;;;;;;1999.90;999.90;;;16.20;99.90;;;;;;5031574;28;20547;-66
2022/08/21 02:38:54;;;;;;;1999.90;999.90;;;16.20;99.90;;;;;;5031641;28;20184;-66
2022/08/21 02:41:21;;;;;;;1999.90;999.90;;;16.10;99.90;;;;;;5031613;28;20402;-66
2022/08/21 02:43:47;;;;;;;1999.90;999.90;;;16.00;99.90;;;;;;5031526;28;20540;-67
2022/08/21 02:46:15;;;;;;;1999.90;999.90;;;16.00;99.90;;;;;;5037781;28;20445;-66
2022/08/21 02:48:41;;;;;;;1999.90;999.90;;;16.00;99.90;;;;;;5034733;28;20424;-66
2022/08/21 02:51:12;;;;;;;1999.90;999.90;;;15.90;99.90;;;;;;5031558;28;20436;-66
2022/08/21 02:53:39;;;;;;;1999.90;999.90;;;15.90;99.90;;;;;;5031466;28;20455;-66
2022/08/21 02:56:08;;;;;;;1999.90;999.90;;;15.90;99.90;;;;;;5031208;28;20408;-65
2022/08/21 02:58:41;;;;;;;1999.90;999.90;;;15.80;99.90;;;;;;5031448;28;20416;-68
2022/08/21 03:01:09;;;;;;;1999.90;999.90;;;15.70;99.90;;;;;;5031511;28;20448;-67
2022/08/21 03:03:37;;;;;;;1999.90;999.90;;;15.60;99.90;;;;;;5031446;28;20466;-67
2022/08/21 03:06:05;;;;;;;1999.90;999.90;;;15.50;99.90;;;;;;5038220;28;20419;-66
2022/08/21 03:08:30;;;;;;;1999.90;999.90;;;15.50;99.90;;;;;;5031335;28;20873;-67
2022/08/21 03:10:56;;;;;;;1999.90;999.90;;;15.50;99.90;;;;;;5033474;28;20409;-66
2022/08/21 03:13:22;;;;;;;1999.90;999.90;;;15.40;99.90;;;;;;5034924;28;20211;-67
2022/08/21 03:15:49;;;;;;;1999.90;999.90;;;15.40;99.90;;;;;;5034983;28;20183;-66
2022/08/21 03:18:15;;;;;;;1999.90;999.90;;;15.30;99.90;;;;;;5034675;28;20408;-66
2022/08/21 03:20:42;;;;;;;1999.90;999.90;;;15.30;99.90;;;;;;5034908;28;20406;-66
2022/08/21 03:23:09;;;;;;;1999.90;999.90;;;15.30;99.90;;;;;;5034727;28;20454;-66
2022/08/21 03:25:35;;;;;;;1999.90;999.90;;;15.30;99.90;;;;;;5034779;28;20411;-66
2022/08/21 03:28:03;;;;;;;1999.90;999.90;;;15.40;99.90;;;;;;5034818;28;20412;-66
2022/08/21 03:30:31;;;;;;;1999.90;999.90;;;15.50;99.90;;;;;;5044785;28;20400;-65
2022/08/21 03:32:58;;;;;;;1999.90;999.90;;;15.50;99.90;;;;;;5034559;28;20513;-66
2022/08/21 03:35:24;;;;;;;1999.90;999.90;;;15.50;99.90;;;;;;5034576;28;20396;-66
2022/08/21 03:37:50;;;;;;;1999.90;999.90;;;15.60;99.90;;;;;;5034333;28;20400;-66
2022/08/21 03:40:18;;;;;;;1999.90;999.90;;;15.50;99.90;;;;;;5034517;28;20451;-66
2022/08/21 03:42:46;;;;;;;1999.90;999.90;;;15.40;99.90;;;;;;5045464;28;20242;-65
2022/08/21 03:45:14;;;;;;;1999.90;999.90;;;15.30;99.90;;;;;;5047685;28;20437;-65
2022/08/21 03:47:55;;;;;;;1999.90;999.90;;;15.30;99.90;;;;;;5042820;28;20404;-66
2022/08/21 03:50:21;;;;;;;1999.90;999.90;;;15.20;99.90;;;;;;5034405;28;20405;-66
2022/08/21 03:52:47;;;;;;;1999.90;999.90;;;15.20;99.90;;;;;;5034153;28;20461;-66
2022/08/21 03:55:13;;;;;;;1999.90;999.90;;;15.20;99.90;;;;;;5034504;28;20435;-66
2022/08/21 03:57:38;;;;;;;1999.90;999.90;;;15.10;99.90;;;;;;5033945;28;20172;-65
2022/08/21 04:00:08;;;;;;;1999.90;999.90;;;15.00;99.90;;;;;;5034211;28;20177;-66
2022/08/21 04:02:33;;;;;;;1999.90;999.90;;;15.00;99.90;;;;;;5034080;28;20190;-66
2022/08/21 04:04:59;;;;;;;1999.90;999.90;;;15.00;99.90;;;;;;5033894;28;20462;-67
2022/08/21 04:07:25;;;;;;;1999.90;999.90;;;15.00;99.90;;;;;;5034382;28;20173;-67
2022/08/21 04:09:50;;;;;;;1999.90;999.90;;;15.00;99.90;;;;;;5037947;28;20173;-67
2022/08/21 04:12:16;;;;;;;1999.90;999.90;;;15.00;99.90;;;;;;5037363;28;20183;-66
2022/08/21 04:14:41;;;;;;;1999.90;999.90;;;15.00;99.90;;;;;;5048362;28;20176;-67
2022/08/21 04:17:07;;;;;;;1999.90;999.90;;;14.90;99.90;;;;;;5034712;28;20206;-67
2022/08/21 04:19:33;;;;;;;1999.90;999.90;;;14.80;99.90;;;;;;5035021;28;20179;-67
2022/08/21 04:21:58;;;;;;;1999.90;999.90;;;14.70;99.90;;;;;;5045969;28;20171;-66
2022/08/21 04:24:24;;;;;;;1999.90;999.90;;;14.70;99.90;;;;;;5033563;28;20228;-66
2022/08/21 04:26:50;;;;;;;1999.90;999.90;;;14.60;99.90;;;;;;5033294;28;20686;-66
2022/08/21 04:29:15;;;;;;;1999.90;999.90;;;14.60;99.90;;;;;;5038820;28;20154;-67
2022/08/21 04:31:43;;;;;;;1999.90;999.90;;;14.60;99.90;;;;;;5046447;28;20164;-67
2022/08/21 04:34:09;;;;;;;1999.90;999.90;;;14.70;99.90;;;;;;5037099;28;20187;-67
2022/08/21 04:36:34;;;;;;;1999.90;999.90;;;14.90;99.90;;;;;;5033337;28;20460;-67
2022/08/21 04:39:00;;;;;;;1999.90;999.90;;;15.00;99.90;;;;;;5033409;28;20255;-67
2022/08/21 04:41:25;;;;;;;1999.90;999.90;;;15.10;99.90;;;;;;5033209;28;20197;-67
2022/08/21 04:43:51;;;;;;;1999.90;999.90;;;15.20;99.90;;;;;;5041201;28;20210;-67
2022/08/21 04:46:17;;;;;;;1999.90;999.90;;;15.30;99.90;;;;;;5034994;28;20169;-66
2022/08/21 04:48:42;;;;;;;1999.90;999.90;;;15.40;99.90;;;;;;5035646;28;20226;-66
2022/08/21 04:51:21;;;;;;;1999.90;999.90;;;15.50;99.90;;;;;;5035595;28;20606;-67
2022/08/21 04:53:48;;;;;;;1999.90;999.90;;;15.60;99.90;;;;;;5032898;28;20281;-67
2022/08/21 04:56:39;;;;;;;1999.90;999.90;;;15.60;99.90;;;;;;5042527;28;20410;-67
2022/08/21 04:59:13;;;;;;;1999.90;999.90;;;15.60;99.90;;;;;;5043634;28;20422;-66
2022/08/21 05:01:40;;;;;;;1999.90;999.90;;;15.60;99.90;;;;;;5033004;28;20496;-67
2022/08/21 05:04:08;;;;;;;1999.90;999.90;;;15.60;99.90;;;;;;5032699;28;20983;-67
2022/08/21 05:06:37;;;;;;;1999.90;999.90;;;15.60;99.90;;;;;;5037214;28;20418;-66
2022/08/21 05:09:03;;;;;;;1999.90;999.90;;;15.70;99.90;;;;;;5024289;28;20419;-66
2022/08/21 05:11:30;;;;;;;1999.90;999.90;;;15.70;99.90;;;;;;5032740;28;20897;-66
2022/08/21 05:13:56;;;;;;;1999.90;999.90;;;15.80;99.90;;;;;;5032562;28;20459;-67
2022/08/21 05:16:22;;;;;;;1999.90;999.90;;;15.80;99.90;;;;;;5032495;28;20407;-67
2022/08/21 05:18:47;;;;;;;1999.90;999.90;;;15.90;99.90;;;;;;5032576;28;20250;-66
2022/08/21 05:21:13;;;;;;;1999.90;999.90;;;16.00;99.90;;;;;;5032827;28;20746;-67
2022/08/21 05:23:38;;;;;;;1999.90;999.90;;;16.00;99.90;;;;;;5032435;28;20201;-67
2022/08/21 05:26:04;;;;;;;1999.90;999.90;;;16.10;99.90;;;;;;5032218;28;20174;-66
2022/08/21 05:28:31;;;;;;;1999.90;999.90;;;16.20;99.90;;;;;;5041656;28;20180;-66
2022/08/21 05:30:56;;;;;;;1999.90;999.90;;;16.20;99.90;;;;;;5036255;28;20582;-66
2022/08/21 05:33:22;;;;;;;1999.90;999.90;;;16.30;99.90;;;;;;5031992;28;20428;-67
2022/08/21 05:35:52;;;;;;;1999.90;999.90;;;16.40;99.90;;;;;;5032331;28;20203;-67
2022/08/21 05:38:18;;;;;;;1999.90;999.90;;;16.40;99.90;;;;;;5032288;28;20180;-67
2022/08/21 05:40:45;;;;;;;1999.90;999.90;;;16.50;99.90;;;;;;5032331;28;20418;-66
2022/08/21 05:43:11;;;;;;;1999.90;999.90;;;16.50;99.90;;;;;;5032138;28;20464;-66
2022/08/21 05:45:36;;;;;;;1999.90;999.90;;;16.60;99.90;;;;;;5032052;28;20497;-67
2022/08/21 05:48:11;;;;;;;1999.90;999.90;;;16.60;99.90;;;;;;5032056;28;20582;-66
2022/08/21 05:50:37;;;;;;;1999.90;999.90;;;16.60;99.90;;;;;;5032154;28;20183;-66
2022/08/21 05:53:04;;;;;;;1999.90;999.90;;;16.70;99.90;;;;;;5032082;28;20477;-66
2022/08/21 05:55:29;;;;;;;1999.90;999.90;;;16.80;99.90;;;;;;5032098;28;20487;-66
2022/08/21 05:57:55;;;;;;;1999.90;999.90;;;16.90;99.90;;;;;;5031772;28;20448;-66
2022/08/21 06:00:22;;;;;;;1999.90;999.90;;;16.90;99.90;;;;;;5042427;28;20176;-67
2022/08/21 06:02:50;;;;;;;1999.90;999.90;;;17.00;99.90;;;;;;5044429;28;20590;-67
2022/08/21 06:05:17;;;;;;;1999.90;999.90;;;17.10;99.90;;;;;;5045141;28;20476;-67
2022/08/21 06:07:43;;;;;;;1999.90;999.90;;;17.20;99.90;;;;;;5031891;28;20410;-67
2022/08/21 06:10:08;;;;;;;1999.90;999.90;;;17.30;99.90;;;;;;5031931;28;20414;-67
2022/08/21 06:12:34;;;;;;;1999.90;999.90;;;17.30;99.90;;;;;;5032262;28;20448;-66
2022/08/21 06:15:00;;;;;;;1999.90;999.90;;;17.40;99.90;;;;;;5039802;28;20594;-66
2022/08/21 06:17:25;;;;;;;1999.90;999.90;;;17.30;99.90;;;;;;5031441;28;20174;-67
2022/08/21 06:19:55;;;;;;;1999.90;999.90;;;17.40;99.90;;;;;;5039385;28;20259;-66
2022/08/21 06:22:20;;;;;;;1999.90;999.90;;;17.50;99.90;;;;;;5024311;28;20559;-67
2022/08/21 06:24:46;;;;;;;1999.90;999.90;;;17.50;99.90;;;;;;5016794;28;20449;-66
2022/08/21 06:27:12;;;;;;;1999.90;999.90;;;17.50;99.90;;;;;;5042057;28;20179;-67
2022/08/21 06:29:38;;;;;;;1999.90;999.90;;;17.50;99.90;;;;;;5035416;28;20171;-66
2022/08/21 06:32:04;;;;;;;1999.90;999.90;;;17.50;99.90;;;;;;5031730;28;20172;-66
2022/08/21 06:34:30;;;;;;;1999.90;999.90;;;17.60;99.90;;;;;;5031628;28;20421;-66
2022/08/21 06:36:56;;;;;;;1999.90;999.90;;;17.60;99.90;;;;;;5031333;28;20412;-66
2022/08/21 06:39:21;;;;;;;1999.90;999.90;;;17.70;99.90;;;;;;5036477;28;20407;-66
2022/08/21 06:41:47;;;;;;;1999.90;999.90;;;17.70;99.90;;;;;;5023129;28;20179;-67
2022/08/21 06:44:16;;;;;;;1999.90;999.90;;;17.80;99.90;;;;;;5031483;28;20254;-66
2022/08/21 06:46:41;;;;;;;1999.90;999.90;;;18.00;99.90;;;;;;5034591;28;20391;-67
2022/08/21 06:49:07;;;;;;;1999.90;999.90;;;18.00;99.90;;;;;;5035493;28;20558;-66
2022/08/21 06:51:32;;;;;;;1999.90;999.90;;;18.00;99.90;;;;;;5035400;28;20161;-66
2022/08/21 06:53:58;;;;;;;1999.90;999.90;;;18.10;99.90;;;;;;5035232;28;20284;-66
2022/08/21 06:56:24;;;;;;;1999.90;999.90;;;18.20;99.90;;;;;;5037219;28;20692;-66
2022/08/21 06:58:49;;;;;;;1999.90;999.90;;;18.30;99.90;;;;;;5040701;28;20252;-66
2022/08/21 07:01:15;;;;;;;1999.90;999.90;;;18.30;99.90;;;;;;5035187;28;20194;-67
2022/08/21 07:03:42;;;;;;;1999.90;999.90;;;18.30;99.90;;;;;;5034822;28;20198;-67
2022/08/21 07:06:10;;;;;;;1999.90;999.90;;;18.40;99.90;;;;;;5034495;28;20760;-67
2022/08/21 07:08:37;;;;;;;1999.90;999.90;;;18.40;99.90;;;;;;5034681;28;20444;-66
2022/08/21 07:11:07;;;;;;;1999.90;999.90;;;18.40;99.90;;;;;;5034606;28;20415;-66
2022/08/21 07:13:33;;;;;;;1999.90;999.90;;;18.40;99.90;;;;;;5034847;28;20474;-66
2022/08/21 07:15:58;;;;;;;1999.90;999.90;;;18.50;99.90;;;;;;5034657;28;20407;-67
2022/08/21 07:18:24;;;;;;;1999.90;999.90;;;18.60;99.90;;;;;;5034966;28;20184;-66
2022/08/21 07:20:50;;;;;;;1999.90;999.90;;;18.70;99.90;;;;;;5036378;28;20642;-66
2022/08/21 07:23:35;;;;;;;1999.90;999.90;;;18.80;99.90;;;;;;5034701;28;20247;-66
2022/08/21 07:26:01;;;;;;;1999.90;999.90;;;18.90;99.90;;;;;;5036419;28;20388;-66
2022/08/21 07:28:28;;;;;;;1999.90;999.90;;;18.90;99.90;;;;;;5038149;28;20776;-66
2022/08/21 07:30:56;;;;;;;1999.90;999.90;;;19.00;99.90;;;;;;5033514;28;20834;-67
2022/08/21 07:33:23;;;;;;;1999.90;999.90;;;19.10;99.90;;;;;;5034476;28;20449;-66
2022/08/21 07:35:48;;;;;;;1999.90;999.90;;;19.00;99.90;;;;;;5036415;28;20446;-65
2022/08/21 07:38:14;;;;;;;1999.90;999.90;;;19.10;99.90;;;;;;5035194;28;20481;-66
2022/08/21 07:40:39;;;;;;;1999.90;999.90;;;19.30;99.90;;;;;;5034544;28;20697;-67
2022/08/21 07:43:05;;;;;;;1999.90;999.90;;;19.30;99.90;;;;;;5034350;28;20191;-66
2022/08/21 07:45:31;;;;;;;1999.90;999.90;;;19.40;99.90;;;;;;5034357;28;20532;-66
2022/08/21 07:47:57;;;;;;;1999.90;999.90;;;19.50;99.90;;;;;;5034108;28;20536;-66
2022/08/21 07:50:24;;;;;;;1999.90;999.90;;;19.50;99.90;;;;;;5034496;28;20399;-67
2022/08/21 07:52:49;;;;;;;1999.90;999.90;;;19.50;99.90;;;;;;5034177;28;20187;-67
2022/08/21 07:55:19;;;;;;;1999.90;999.90;;;19.60;99.90;;;;;;5036285;28;20401;-67
2022/08/21 07:57:45;;;;;;;1999.90;999.90;;;19.70;99.90;;;;;;5045081;28;20171;-67
2022/08/21 08:00:18;;;;;;;1999.90;999.90;;;19.70;99.90;;;;;;5023688;28;20755;-67
2022/08/21 08:02:46;;;;;;;1999.90;999.90;;;19.70;99.90;;;;;;5021558;28;20454;-67
2022/08/21 08:05:12;;;;;;;1999.90;999.90;;;19.80;99.90;;;;;;5037246;28;20585;-66
2022/08/21 08:07:38;;;;;;;1999.90;999.90;;;20.00;99.90;;;;;;5043041;28;20899;-66
2022/08/21 08:10:06;;;;;;;1999.90;999.90;;;20.10;99.90;;;;;;5046524;28;20410;-66
2022/08/21 08:12:36;;;;;;;1999.90;999.90;;;20.30;99.90;;;;;;5045423;28;20442;-66
2022/08/21 08:15:03;;;;;;;1999.90;999.90;;;20.40;99.90;;;;;;5033573;28;20747;-66
2022/08/21 08:17:29;;;;;;;1999.90;999.90;;;20.40;99.90;;;;;;5033418;28;20406;-66
2022/08/21 08:19:55;;;;;;;1999.90;999.90;;;20.50;99.90;;;;;;5033792;28;20405;-66
2022/08/21 08:22:23;;;;;;;1999.90;999.90;;;20.60;99.90;;;;;;5033634;28;20173;-67
2022/08/21 08:24:50;;;;;;;1999.90;999.90;;;20.70;99.90;;;;;;5039922;28;20196;-67
2022/08/21 08:27:17;;;;;;;1999.90;999.90;;;20.80;99.90;;;;;;5033419;28;20434;-67
2022/08/21 08:29:43;;;;;;;1999.90;999.90;;;21.00;99.90;;;;;;5037973;28;20416;-66
2022/08/21 08:32:09;;;;;;;1999.90;999.90;;;21.10;99.90;;;;;;5039384;28;20409;-67
2022/08/21 08:34:36;;;;;;;1999.90;999.90;;;21.20;99.90;;;;;;5040826;28;20478;-66
2022/08/21 08:37:03;;;;;;;1999.90;999.90;;;21.20;99.90;;;;;;5043062;28;20187;-67
2022/08/21 08:39:28;;;;;;;1999.90;999.90;;;21.10;99.90;;;;;;5034623;28;20810;-65
2022/08/21 08:42:15;;;;;;;1999.90;999.90;;;21.20;99.90;;;;;;5043698;28;20449;-66
2022/08/21 08:44:46;;;;;;;1999.90;999.90;;;21.30;99.90;;;;;;5033168;28;20482;-66
2022/08/21 08:47:15;;;;;;;1999.90;999.90;;;21.30;99.90;;;;;;5032968;28;20839;-67
2022/08/21 08:50:04;;;;;;;1999.90;999.90;;;21.50;99.90;;;;;;5037097;28;20474;-66
2022/08/21 08:52:42;;;;;;;1999.90;999.90;;;21.60;99.90;;;;;;5043020;28;20433;-67
2022/08/21 08:55:16;;;;;;;1999.90;999.90;;;21.60;99.90;;;;;;5042660;28;20403;-67
2022/08/21 08:57:48;;;;;;;1999.90;999.90;;;21.70;99.90;;;;;;5042329;28;20461;-67
2022/08/21 09:00:18;;;;;;;1999.90;999.90;;;21.80;99.90;;;;;;5041484;28;20407;-67
2022/08/21 09:02:46;;;;;;;1999.90;999.90;;;21.90;99.90;;;;;;5034302;28;20482;-67
2022/08/21 09:05:27;;;;;;;1999.90;999.90;;;21.90;99.90;;;;;;5039469;28;20479;-66
2022/08/21 09:08:20;;;;;;;1999.90;999.90;;;22.00;99.90;;;;;;5032776;28;20393;-66
2022/08/21 09:10:57;;;;;;;1999.90;999.90;;;22.20;99.90;;;;;;5032861;28;20407;-66
2022/08/21 09:13:29;;;;;;;1999.90;999.90;;;22.20;99.90;;;;;;5039217;28;20477;-66
2022/08/21 09:16:06;;;;;;;1999.90;999.90;;;22.30;99.90;;;;;;5042756;28;20469;-67
2022/08/21 09:18:41;;;;;;;1999.90;999.90;;;22.40;99.90;;;;;;5033420;28;20435;-67
2022/08/21 09:21:17;;;;;;;1999.90;999.90;;;22.50;99.90;;;;;;5033102;28;20399;-67
2022/08/21 09:23:54;;;;;;;1999.90;999.90;;;22.60;99.90;;;;;;5030244;28;20551;-67
2022/08/21 09:26:26;;;;;;;1999.90;999.90;;;22.70;99.90;;;;;;5028543;28;20492;-68
2022/08/21 09:28:56;;;;;;;1999.90;999.90;;;22.80;99.90;;;;;;5031576;28;20405;-67
2022/08/21 09:31:28;;;;;;;1999.90;999.90;;;22.90;99.90;;;;;;5031897;28;20794;-67
2022/08/21 09:34:06;;;;;;;1999.90;999.90;;;23.00;99.90;;;;;;5031447;28;20436;-69
2022/08/21 09:36:40;;;;;;;1999.90;999.90;;;23.10;99.90;;;;;;5031481;28;20427;-69
2022/08/21 09:39:07;;;;;;;1999.90;999.90;;;23.30;99.90;;;;;;5031664;28;20416;-69
2022/08/21 09:41:35;;;;;;;1999.90;999.90;;;23.30;99.90;;;;;;5031067;28;21294;-68
2022/08/21 09:44:02;;;;;;;1999.90;999.90;;;23.40;99.90;;;;;;5031574;28;20436;-68
2022/08/21 09:46:28;;;;;;;1999.90;999.90;;;23.50;99.90;;;;;;5031092;28;20396;-69
2022/08/21 09:49:03;;;;;;;1999.90;999.90;;;23.50;99.90;;;;;;5029673;28;20488;-67
2022/08/21 09:51:35;;;;;;;1999.90;999.90;;;23.50;99.90;;;;;;5026663;28;20424;-67
2022/08/21 09:54:07;;;;;;;1999.90;999.90;;;23.40;99.90;;;;;;5029097;28;21257;-68
2022/08/21 09:59:30;;;;;;;1999.90;999.90;;;23.30;99.90;;;;;;5030522;28;20427;-69
2022/08/21 10:02:00;;;;;;;1999.90;999.90;;;23.50;99.90;;;;;;5029706;28;20433;-69
2022/08/21 10:04:35;;;;;;;1999.90;999.90;;;23.70;99.90;;;;;;5030559;28;20429;-69
2022/08/21 10:07:14;;;;;;;1999.90;999.90;;;23.80;99.90;;;;;;5030358;28;20408;-69
2022/08/21 10:09:41;;;;;;;1999.90;999.90;;;24.00;99.90;;;;;;5030542;28;20415;-69
2022/08/21 10:12:23;;;;;;;1999.90;999.90;;;24.00;99.90;;;;;;5029799;28;20416;-69
2022/08/21 10:15:09;;;;;;;1999.90;999.90;;;24.10;99.90;;;;;;5030320;28;20393;-68
2022/08/21 10:18:03;;;;;;;1999.90;999.90;;;24.40;99.90;;;;;;5030200;28;20464;-69
2022/08/21 10:20:57;;;;;;;1999.90;999.90;;;24.60;99.90;;;;;;5031519;28;20468;-68
2022/08/21 10:23:34;;;;;;;1999.90;999.90;;;24.80;99.90;;;;;;5033485;28;20437;-69
2022/08/21 10:26:18;;;;;;;1999.90;999.90;;;24.80;99.90;;;;;;5034086;28;20410;-67
2022/08/21 10:28:52;;;;;;;1999.90;999.90;;;24.80;99.90;;;;;;5035514;28;20438;-68
2022/08/21 10:32:00;;;;;;;1999.90;999.90;;;25.10;99.90;;;;;;5035302;28;20871;-67
2022/08/21 10:35:04;;;;;;;1999.90;999.90;;;25.10;98.90;;;;;;5035327;28;20434;-68
2022/08/21 10:37:48;;;;;;;1999.90;999.90;;;25.10;99.50;;;;;;5021617;28;20418;-68
2022/08/21 10:40:13;;;;;;;1999.90;999.90;;;25.10;98.60;;;;;;5035323;28;20828;-68
2022/08/21 10:42:48;;;;;;;1999.90;999.90;;;25.00;98.90;;;;;;5035165;28;20410;-68
2022/08/21 10:45:29;;;;;;;1999.90;999.90;;;25.10;99.20;;;;;;5035104;28;20295;-68
2022/08/21 10:48:01;;;;;;;1999.90;999.90;;;25.30;98.50;;;;;;5033841;28;20464;-68
2022/08/21 10:50:31;;;;;;;1999.90;999.90;;;25.50;96.60;;;;;;5035138;28;20381;-68
2022/08/21 10:53:35;;;;;;;1999.90;999.90;;;25.50;97.40;;;;;;5034967;28;20447;-68
2022/08/21 10:56:12;;;;;;;1999.90;999.90;;;25.40;95.60;;;;;;5034170;28;20422;-68
2022/08/21 10:58:43;;;;;;;1999.90;999.90;;;25.50;95.40;;;;;;5034751;28;20497;-68
2022/08/21 11:01:27;;;;;;;1999.90;999.90;;;25.50;94.80;;;;;;5034907;28;20494;-68
2022/08/21 11:04:09;;;;;;;1999.90;999.90;;;25.70;95.30;;;;;;5034826;28;20429;-68
2022/08/21 11:06:38;;;;;;;1999.90;999.90;;;25.80;93.70;;;;;;5034427;28;20406;-68
2022/08/21 11:09:17;;;;;;;1999.90;999.90;;;25.80;93.60;;;;;;5034752;28;20385;-68
2022/08/21 11:12:05;;;;;;;1999.90;999.90;;;25.90;92.50;;;;;;5034682;28;20410;-68
2022/08/21 11:15:05;;;;;;;1999.90;999.90;;;25.80;92.40;;;;;;5034428;28;20468;-68
2022/08/21 11:17:42;;;;;;;1999.90;999.90;;;25.90;92.50;;;;;;5020993;28;20423;-68
2022/08/21 11:20:20;;;;;;;1999.90;999.90;;;25.90;92.10;;;;;;5034677;28;20406;-68
2022/08/21 11:22:54;;;;;;;1999.90;999.90;;;25.60;91.80;;;;;;5034530;28;20473;-68
2022/08/21 11:25:26;;;;;;;1999.90;999.90;;;25.40;93.10;;;;;;5034336;28;20474;-68
2022/08/21 11:27:58;;;;;;;1999.90;999.90;;;25.40;93.40;;;;;;5034449;28;20385;-68
2022/08/21 11:30:31;;;;;;;1999.90;999.90;;;25.70;92.40;;;;;;5034286;28;20445;-68
2022/08/21 11:32:59;;;;;;;1999.90;999.90;;;26.00;90.90;;;;;;5034194;28;20844;-68
2022/08/21 11:35:34;;;;;;;1999.90;999.90;;;26.20;90.20;;;;;;5034304;28;20396;-68
2022/08/21 11:38:08;;;;;;;1999.90;999.90;;;26.20;87.70;;;;;;5033999;28;20403;-68
2022/08/21 11:40:58;;;;;;;1999.90;999.90;;;26.40;88.70;;;;;;5034115;28;20403;-68
2022/08/21 11:43:33;;;;;;;1999.90;999.90;;;26.40;84.50;;;;;;5034071;28;20466;-67
2022/08/21 11:46:17;;;;;;;1999.90;999.90;;;26.40;83.90;;;;;;5034082;28;20480;-67
2022/08/21 11:49:01;;;;;;;1999.90;999.90;;;26.40;82.30;;;;;;5034720;28;20399;-67
2022/08/21 11:52:02;;;;;;;1999.90;999.90;;;26.40;81.50;;;;;;5034771;28;20407;-67
2022/08/21 11:54:49;;;;;;;1999.90;999.90;;;26.40;81.00;;;;;;5034927;28;20737;-67
2022/08/21 11:57:27;;;;;;;1999.90;999.90;;;27.00;82.50;;;;;;5035055;28;20809;-67
2022/08/21 12:00:16;;;;;;;1999.90;999.90;;;27.80;76.20;;;;;;5034369;28;20468;-67
2022/08/21 12:02:52;;;;;;;1999.90;999.90;;;28.40;66.20;;;;;;5034825;28;20422;-66
2022/08/21 12:05:36;;;;;;;1999.90;999.90;;;29.00;61.70;;;;;;5034202;28;20430;-67
2022/08/21 12:08:06;;;;;;;1999.90;999.90;;;29.60;55.40;;;;;;5034133;28;20736;-66
2022/08/21 12:10:36;;;;;;;1999.90;999.90;;;29.80;52.60;;;;;;5034764;28;20430;-66
2022/08/21 12:13:13;;;;;;;1999.90;999.90;;;29.90;45.20;;;;;;5034790;28;20889;-67
2022/08/21 12:15:39;;;;;;;1999.90;999.90;;;30.10;45.70;;;;;;5033707;28;20395;-67